Date,TemperatureHighF,TemperatureAvgF,TemperatureLowF,DewpointHighF,DewpointAvgF,DewpointLowF,HumidityHigh,HumidityAvg,HumidityLow,PressureMaxIn,PressureMinIn,WindSpeedMaxMPH,WindSpeedAvgMPH,GustSpeedMaxMPH,PrecipitationSumIn
2013-12-1,48.0,38.1,31.0,33.0,29.7,26.0,94,72,51,30.33,29.99,8,1,8,0.00
2013-12-2,46.8,39.7,35.8,35.0,30.4,26.0,88,69,54,29.99,29.87,6,1,6,0.00
2013-12-3,51.3,41.9,32.3,41.0,35.1,32.0,100,78,50,29.99,29.86,10,2,10,0.00
2013-12-4,47.9,42.7,35.3,43.0,38.0,33.0,94,84,73,30.12,29.98,6,2,6,0.00
2013-12-5,55.0,49.1,43.5,55.0,48.7,41.0,100,99,86,30.11,29.93,7,1,7,0.04
2013-12-6,57.7,44.2,34.9,57.0,43.5,35.0,100,97,92,30.13,29.87,23,4,23,0.98
2013-12-7,35.8,32.7,27.2,35.0,27.0,16.0,99,79,64,30.47,30.05,19,5,19,0.05
2013-12-8,29.0,26.3,24.6,28.0,19.2,16.0,99,74,61,30.53,30.30,11,4,11,0.00
2013-12-9,33.8,31.3,27.1,35.0,31.7,28.0,100,100,99,30.30,29.94,11,3,11,0.15
2013-12-10,31.9,29.0,22.5,32.0,28.4,18.0,100,97,74,30.08,29.85,12,2,12,0.00
2013-12-11,29.9,24.9,20.1,23.0,18.2,14.0,85,74,58,30.28,30.08,19,4,19,0.01
2013-12-12,24.6,20.8,16.8,18.0,12.0,8.0,78,65,51,30.29,30.09,18,6,18,0.00
2013-12-13,31.3,23.6,14.4,18.0,13.9,8.0,70,64,55,30.28,30.06,21,3,21,0.01
2013-12-14,27.3,21.7,17.0,26.0,19.0,16.0,99,88,66,30.41,29.58,22,6,22,0.00
2013-12-15,35.0,30.7,25.2,33.0,28.2,21.0,100,90,70,29.80,29.50,19,4,19,0.14
2013-12-16,28.9,23.4,18.7,23.0,13.5,8.0,79,63,50,30.17,29.79,23,5,23,0.00
2013-12-17,25.3,20.7,17.3,26.0,18.7,11.0,98,89,63,30.16,29.88,10,2,10,0.00
2013-12-18,33.3,26.3,18.8,24.0,21.0,18.0,95,78,63,30.14,29.87,20,5,22,0.00
2013-12-19,41.4,32.9,23.0,28.0,24.2,18.0,86,69,55,30.13,30.00,13,2,13,0.12
2013-12-20,47.9,42.1,35.6,38.0,30.9,26.0,75,64,54,30.08,29.96,9,2,9,0.06
2013-12-21,57.2,50.9,44.6,53.0,45.6,38.0,93,82,73,30.00,29.90,12,2,12,0.00
2013-12-22,66.1,61.2,55.1,62.0,58.1,53.0,99,91,80,29.97,29.81,20,3,20,0.02
2013-12-23,58.1,51.8,36.4,57.0,50.3,28.0,100,95,71,30.14,29.90,22,4,22,0.57
2013-12-24,36.4,31.2,21.8,28.0,22.1,11.0,95,67,56,30.30,30.07,28,7,28,0.01
2013-12-25,25.8,20.6,14.5,16.0,11.2,8.0,79,64,53,30.47,29.88,21,4,22,0.00
2013-12-26,31.9,27.2,20.7,28.0,22.4,16.0,91,81,71,30.37,30.13,14,3,14,0.00
2013-12-27,37.4,31.0,25.3,24.0,22.1,18.0,84,67,53,30.32,30.23,15,3,15,0.00
2013-12-28,52.3,39.6,28.5,29.0,25.7,21.0,73,57,39,30.25,30.06,18,3,18,0.00
2013-12-29,45.5,40.0,36.5,41.0,33.6,26.0,100,79,48,30.06,29.43,18,5,18,0.84
2013-12-30,42.0,32.7,19.2,38.0,26.7,11.0,97,77,59,30.14,29.69,18,5,18,0.00
2013-12-31,28.3,21.9,14.9,26.0,14.5,8.0,93,70,55,30.23,30.01,20,4,20,0.00